My Meet Scores
Kayleigh Driscoll, Gymnastics At The Courts - MyMeetScores.com
Top100 | Top Teams | Upcoming Meets | Completed Meets | Latest | Add Scores | Help| Support | Bookmark and Share

Kayleigh Driscoll, Gymnastics At The Courts
Personal Bests
LevelVault BarsBeamFloorAA
39.6759.675 9.4509.22537.775
49.2009.500 9.4009.35037.250
58.8009.350 9.2759.12536.400
79.3259.500 9.4259.42537.300
89.0259.225 9.3509.12536.050
Meet Scores
Date Meet Team Session Level Division Vault Bars Beam Floor AA
2018-02-23 Jaycie Phelps Midwest Showdown Gymnastics At The Courts 6A 8 B 8.025 6 9.225 2 9.325 1T 9.050 5T 35.625 6
2018-02-09 IGI Chicago Style Gymnastics Meet Gymnastics At The Courts 35 8 523 Wacker L8 A 8.800 6 8.200 13 9.350 2 9.125 12 35.475 10
2018-01-31 Buckeye Classic Gymnastics At The Courts SS3 8 B 8.300 13 9.175 6 9.125 4 8.850 12 35.450 10T
2018-01-18 Circle Of Stars Gymnastics Invitational Gymnastics At The Courts A3 8 Jr C 8.750 7T 9.150 3 9.125 2 9.025 6 36.050 4
2018-01-12 St Jude Benefit Meet Gymnastics At The Courts 2B 8 JrB 9.025 4 9.225 2 8.400 11T 8.825 8 35.475 5
2017-04-21 2017 Region 5 Levels 7 & 8 Championships Midwest Training and Ice Center 05 7 Jr D 2 9.325 19T 9.450 8T 9.425 4T 9.100 19 37.300 7
2017-03-17 2017 Indiana Levels 6-10 State Meet Midwest Training and Ice Center 2 7 Jr A 9.275 8 9.000 15T 9.425 7 9.425 5T 37.125 8
2017-02-24 Kinetic Classic Midwest Training and Ice Center 1 7 All Ages 9.250 13T 9.500 4T 9.025 22 9.225 21* 37.000 10T
2017-02-04 Midwest Games Midwest Training and Ice Center 5 7 Senior 9.125 9 9.100 4 9.250 5 9.350 3 36.825 4
2017-01-13 St Jude Benefit Meet Midwest Training and Ice Center 4B 7 Jr B 8.700 11 8.400 10 9.025 7 9.350 5 35.475 11
2016-01-29 Circle Of Stars Gymnastics Invitational Gymnastics At The Courts 2D15 5 11 8.700 9T 9.350 5 9.225 3 9.125 2 36.400 4
2016-01-23 Indiana Judges Cup 2016 Gymnastics At The Courts 7A 5 11 yrs. 8.550 11 8.650 5T 9.000 6 9.025 7 35.225 5
2015-12-11 2015 Hoosier Cup Gymnastics At The Courts 7A 5 11 yr olds 8.800 5 8.450 10 9.275 3 9.000 1 35.525 2
2015-03-21 2015 Indiana Level 4 & 5 State Meet Midwest Training and Ice Center 2 4 L4: Junior A 8.700 16 9.350 4 9.000 12 8.950 9 36.000 7
2015-02-20 Midwest Open 2015 Midwest Training and Ice Center 9A 4 10 8.450 7 9.100 1 9.200 1 8.950 5 35.700 1
2015-01-23 King Arthur Invitational Midwest Training and Ice Center 5 4 SrA 9.000 2 9.500 2 9.400 2 9.350 1 37.250 1
2014-12-13 2014 Hoosier Cup Midwest Training and Ice Center 9A 4 10 Yrs. 9.200 2T 9.475 1 9.200 5 9.175 6T 37.050 1
2014-03-07 2014 Indiana Level 2, 3 North State Championships Midwest Training and Ice Center All 3 All 9.150 189T 9.425 22T 9.175 41T 9.225 41T 36.975 43T
2014-02-07 IGI Chicago Style Gymnastics Meet Midwest Training and Ice Center 233 3 9 Yr Olds 9.675 1 9.675 1 9.450 4T 8.975 15 37.775 3
2013-12-07 2013 Indiana State Invite Midwest Training and Ice Center 2B 3 9 yr olds 9.600 1 8.550 12T 8.500 14T 9.000 5T 35.650 9
2013-11-16 2013 Quest for the Diamond Midwest Training and Ice Center 1 3 9 yrs 8.950 7 9.050 8 8.200 12 8.150 12 34.350 9

www.lazysuits.com